World Human Powered Speed Challenge
Racer Profiles
What's New?
Spectators
Event Pictures
WHPSC Home
Monday 
Tuesday
Wednesday 
Thursday
Friday
Saturday
Main Results

2009 WHPSC Main Racing Results
Also check out the event pictures page and the event pictures and stories on the links to the daily results above.

WHPSC 2009 200 Meter Results
IHPVA speed measurements during the High Speed runs at Battle Mountain Nevada, September 2009. Highway 305 five mile course as surveyed and marked from the previous years event. Timing end position at end of 200M. Legal wind defined as less than 328 ft/min (1.66 m/s) with vane meter measuring 10sec average into wind direction. 

This year's event has ended, and many new IHPVA records were set!

82.819 MPH - Sam Whittingham in the Varna Tempest, single mens category and fastest man in the world.
75.458 MPH - Barbara Buatois in the Varna Diablo III, single womens category and fastest woman in the world.
43.673 MPH - Greg Westlake in the Avos Arrow hand powered trike, single mens hand powered category.

Date Rider/Vehicle Name Time of Day Elapsed Time
(Secs)
Speed MPH
(Calculated)
Speed KPH
(Calculated)
Wind Speed
ft/min
Legal Wind
(y/n)
 
Monday Qualifying
Monday Sam Whittingham/Varna Tempest 7:34 6.717 66.605 107.191 67 Y
Monday James Schroeder/Specter II 7:36 8.47 52.820 85.006 0 Y
Monday Larry Lem/Scimitar 7:38 8.664 51.638 83.103 0 Y
Monday Yannick Lutz/ Altair II 7:40 7.408 60.393 97.192 0 Y
Monday Eric Ware/ Wedge 7:43 7.704 58.072 93.458 211 Y
Monday Jason Erickson  /Varnator 7:45 7.755 57.690 92.844 200 Y
Monday Fred Markham/ Varna Mephisto 7:47 7.122 62.818 101.095 318 Y
Monday Aaron Williams / Atlas 7:49 9.656 46.333 74.565 276 Y
Monday Barbara Buatois/ Varna Diablo III 8:42 7.012 63.803 102.681 358 N
Monday Tanya Markham/ Varna Mephisto 8:42 7.854 56.963 91.673 490 N
Monday Kevin Schroeder/ Specter II 8:48 9.181 48.730 78.423 372 N
Monday Ron Milligan/ Athena 8:50 12.629 35.425 57.012 237 Y
Monday Yannick Lutz/ Altair II 8:51 No time - - - -  
Monday Tiffany Underwood/ Specter II 9:22 10.764 41.563 66.890 283 Y
      
Monday Evening Speed Runs   \\\\\ Rained out /////             
      
Tuesday Qualifying      
                  
Tuesday Bobby Erman/CP/ Atlas 7:21 9.509 47.049 75.718 217 Y
Tuesday Jay Henry/ Flying J 7:23 10.715 41.753 67.196 103 Y
Tuesday Ryan Milligan/CP/ Atlas 7:47 10.507 42.580 68.526 122 Y
Tuesday James Schroeder/ Specter II DNF - -   - -   -
Tuesday Barclay Henry/ White Backslider 7:52 8.256 54.189 87.210 140 Y
      
Tuesday Morning Speed Runs      
Tuesday Tanya Markham/ Varna Mephisto 9:05 7.399 60.466 97.311 403 N
Tuesday Tiffany Underwood/ Specter II 9:09 9.43 47.443 76.352 328 Y
Tuesday Jay Henry/ Flying J 9:10 7.908 56.574 91.047 466 N
Tuesday Yannick Lutz/ Altair II 9:47 6.296 71.059 114.359 392 N
Tuesday Jason Erickson  /Varnator 9:50 6.931 64.549 103.881 561 N
Tuesday Kevin Schroeder/ Specter II 9:54 9.25 48.366 77.838 557 N
Tuesday Barkley Henry/ White Backslider 9:55 7.442 60.117 96.748 480 N
Tuesday Aaron Williams / Atlas 9:57 9.039 49.495 79.655 454 N
 
Tuesday Evening Speed Runs
Tuesday Barbara Buatois/ Varna Diablo III 18:00 6.463 69.223 111.404 391 N
Tuesday Barclay Henry/ White Blackslider 18:03 7.099 63.021 101.423 59 Y
Tuesday James Schroeder/ Specter II 18:05 7.761 57.646 92.772 204 Y
Tuesday Larry Lem/ Scimitar DNF - -    -  - -  
Tuesday Bobby Erman/CP/ Atlas 18:09 8.499 52.640 84.716 11 Y
Tuesday Sam Whittingham/ Varna Tempest 18:41 5.427 82.438 132.670 126 Y
Tuesday Yannick Lutz/ Altair II 18:44 6.329 70.689 113.762 77 Y
Tuesday Fred Markham/ Varna Mephisto 18:45 5.953 75.153 120.948 91 Y
Tuesday Jason Erickson/ Varnator 18:47 6.65 67.276 108.271 60 Y
Tuesday Eric Ware/ Wedge 18:49 6.849 65.322 105.125 217 Y
 
Wednesday Qualifying Runs
Wednesday Ron Layman/ Primal II 7:29 8.51 52.572 84.607 226 Y
Wednesday Greg Westlake/ Avos Arrow Hand Powered 7:32 11.82 37.850 60.914 260 Y
 
Wednesday Morning Speed Runs
Wednesday James Schroeder/ Specter II 8:17 7.856 56.949 91.650 147 Y
Wednesday Tanya Markham/ Varna Mephisto 9:06 7.138 62.677 100.869 86 Y
Wednesday Jay Henry/ Flying J 9:07 7.51 59.572 95.872 92 Y
Wednesday Tiffany Underwood/ Specter II 9:10 9.271 48.257 77.662 108 Y
Wednesday Kevin Schroeder/ Specter II 9:42 8.745 51.159 82.333 297 Y
Wednesday Aaron Williams / Atlas 9:43 8.518 52.523 84.527 162 Y
 
Wednesday Evening Speed Runs
Wednesday Greg Westlake/ Avos Arrow Hand Powered DNF             
Wednesday Sam Whittingham/ Varna Tempest 18:01 5.693 78.586 126.471 390 N
Wednesday Barclay Henry/ White Blackslider 18:04 6.995 63.958 102.931 158 Y
Wednesday James Schroeder/ Specter II 18:05 7.687 58.201 93.665 151 Y
Wednesday Ron Layman/ Primal II 18:08 7.535 59.375 95.554 67 Y
Wednesday Larry Lem/ Scimitar 18:09 7.274 61.505 98.983 221 Y
Wednesday Fred Markham/ Varna Mephisto 18:46 6.063 73.790 118.753 165 Y
Wednesday Yannick Lutz/ Altair II 18:48 6.331 70.666 113.726 161 Y
Wednesday Barbara Buatois/ Varna Diablo III 18:50 6.168 72.534 116.732 106 Y
Wednesday Eric Ware/ Wedge 18:53 6.492 68.914 110.906 116 Y
Wednesday Bobby Erman/CP/ Atlas 18:56 8.083 55.349 89.076 146 Y
Thursday Greg Westlake/ Avos Arrow Hand Powered 7:29 10.944 40.880 65.790 360 N
Thursday Rob Hitchcock/ Kyle Edge 7:33 9.008 49.666 79.929 445 N
Thursday Morning Record Runs
Thursday Greg Westlake/ Avos Arrow Hand Powered 8:58 10.786 41.479 66.753 112 Y
Thursday Jay Henry/ Flying J 9:03 7.416 60.327 97.088 190 Y
Thursday Kevin Schroeder/ Specter II 9:06 8.712 51.353 82.645 104 Y
Thursday Ryan Milligan/CP/ Atlas 9:08 8.974 49.854 80.232 58 Y
Thursday Tiffany Underwood/ Specter II 9:42 9.514 47.024 75.678 317 Y
Thursday Evening Speed Runs
Thursday Greg Westlake/ Avos Arrow 18:06 11.153 40.114 64.557 446 N
Thursday Barbara Buatois/ Varna Diablo III 18:10 6.869 65.132 104.819 359 N
Thursday Jay Henry/ Flying J DNF - -  -
Thursday Ron Layman/ Primal II 18:14 7.212 62.034 99.834 301 Y
Thursday James Schroeder/ Specter II 18:15 7.804 57.328 92.261 314 Y
Thursday Rob Hitchcock/ Kyle Edge 18:20 8.525 52.480 84.458 450 N
Thursday Sam Whittingham/ Varna Tempest 18:48 5.534 80.844 130.105 170 Y
Thursday Yannick Lutz/ Altair II 18:50 6.348 70.477 113.422 163 Y
Thursday Eric Ware/ Wedge 18:52 6.693 66.844 107.575 171 Y
Thursday Barclay Henry/ White Backslider 18:54 6.9 64.839 104.348 168 Y
Thursday Aaron Williams / Atlas 18:57 7.931 56.410 90.783 175 Y
Thursday Greg Westlake/ Avos Arrow Hand Powered 19:02 10.571 42.322 68.111 203 Y
 
Friday Morning Speed Runs 
Friday Rob Hitchcock/ Kyle Edge 9:02 8.217 54.447 87.623 157 Y
Friday Kevin Schroeder/ Specter II 9:06 8.214 54.467 87.655 70 Y
Friday Jay Henry/ Flying J DNF -  -  - -  -
Friday Bobby Ehrmann/CP/ Atlas 9:10 8.055 55.542 89.386 43 Y
Friday Larry Lem/ Scimitar 9:51 7.211 62.042 99.848 238 Y
Friday Tiffany Underwood/ Specter II 9:55 10.241 43.686 70.306 171 Y
 
Friday Evening Speed Runs
Friday Rob Hitchcock/ Kyle Edge 18:00 7.375 60.663 97.627 222 Y
Friday Ron Layman/ Primal II 18:01 6.718 66.595 107.175 152 Y
Friday Greg Westlake/ Avos Arrow Hand Powered 18:10 10.286 43.495 69.998 188 Y
Friday Sam Whittingham/ Varna Tempest 18:50 5.402 82.819 133.284 108 Y
Friday Yannick Lutz/ Altair II 18:51 6.123 73.067 117.590 96 Y
Friday Eric Ware/ Wedge 18:54 6.295 71.070 114.377 130 Y
Friday Barbara Buatois/ Varna Diablo III 18:55 5.929 75.458 121.437 110 Y
Friday Aaron Williams / Atlas DNF -  -  - -  -
 
Saturday Morning Speed Runs
Saturday Yannick Lutz/ Altair II 8:59 6.519 68.628 110.447 259 Y
Saturday Ron Layman/ Primal II 9:02 6.745 66.329 106.746 488 N
Saturday Tiffany Underwood/ Specter II 9:04 9.426 47.463 76.385 433 N
Saturday James Schroeder/ Specter II 9:34 7.495 59.692 96.064 205 Y
 
Saturday Evening Speed Runs
Saturday Kevin Schroeder/ Specter II 18:16 7.897 56.653 91.174 408 N
Saturday Sam Whittingham/ Varna Diablo III 18:54 5.541 80.741 129.941 171 Y
Saturday Yannick Lutz/ Altair II DNF - - - - -
Saturday Eric Ware/ Wedge 18:57 6.318 70.812 113.960 279 Y
Saturday Barbara Buatois/ Varna Tempest 19:00 6.104 73.294 117.956 309 Y
Saturday Jason Erickson/ Varnator 19:02 6.625 67.530 108.680 358 N
Saturday Greg Westlake/ Avos Arrow 19:06 10.244 43.673 70.285 286 Y
 
     = New Record (pending HPVA approval)
     = Trike Subcategory Record

Back to the WHPSC Homepage

Copyright 2009 -  Web design by Warren Beauchamp